Airfield :
LOGIN :

Register | Disclaimer

   EN    FR    IT 

 










Legend :    VFR   Marginal VFR   IFR   Intensive IFR   Very Intensive IFR
Visi :
Ceiling :
>= 8 km
>= 3000ft
5 to 8 km
1000 to 3000 ft
1500m to 5 km
500 to 1000 ft
800 to 1500m
200 to 500 ft
< 800m
< 200 ft
Symbols :   Thunderstorms  Fog  Heavy snow  Heavy precipitations  Wind > 20 kt
SIGMETs :     Misc.  Thunderstorms  Icing  Turbulence  Mountain Waves  Volcanic Ashes






- Airport Elevation : 147 ft
- IATA code : DUS


EDDL - Düsseldorf Int.

CURRENT METAR :
  • 190650Z 16011KT 9999 -RA FEW040 12/09 Q1005 NOSIG

EXPIRED METARs :
  • 190620Z 16010KT 9999 -RA FEW045 12/09 Q1005 NOSIG
  • 190550Z 16010KT 9999 FEW045 12/09 Q1005 NOSIG
  • 190520Z 15010KT 9999 -RA FEW045 12/09 Q1005 NOSIG
  • 190450Z 15012KT 9999 -RA NSC 12/09 Q1005 NOSIG
  • 190420Z 15012KT 9999 -RA NSC 12/08 Q1006 NOSIG

TAF TAF EDDL
Valid from the 19 at 06:00 until the 20 at 12:00 UTC


190500Z 1906/2012 16011KT 9999 BKN030
PROB30
TEMPO 1906/1911 RA
PROB30
TEMPO 1914/1918 RA
BECMG 1916/1918 16006KT
TEMPO 2002/2012 RA
PROB30
TEMPO 2007/2012 3500 RADZ BKN010
BECMG 2008/2011 36005KT



MET'MAP, your aeronautical weather chart ! - Copyright ORBIFLY December 2007 - Disclaimer

ORBIFLY MET'MAP TEAM :

Programming & Development : Alexandra Zaïnal
Concept & Development : Baudouin d'Aumeries
Co-Development & Prog : Marc-Olivier Méhu
Technical & hardware support : Manuel Goepfert

Contact : metmap@orbifly.com




SOURCES & CREDITS :

   NOAA